createdAt,value
2019-06-07T13:00:33.146Z,3.97
2019-06-07T13:03:07.159Z,3.80
2019-06-07T13:05:40.263Z,4.17
2019-06-07T13:08:13.459Z,3.80
2019-06-07T13:10:46.532Z,3.67
2019-06-07T13:13:20.995Z,3.90
2019-06-07T13:15:53.814Z,4.03
2019-06-07T13:18:28.568Z,6.13
2019-06-07T13:21:02.489Z,3.80
2019-06-07T13:23:36.313Z,3.90
2019-06-07T13:26:09.689Z,3.87
2019-06-07T13:28:42.791Z,3.97
2019-06-07T13:31:16.547Z,4.30
2019-06-07T13:33:50.318Z,3.90
2019-06-07T13:36:24.405Z,3.40
2019-06-07T13:38:57.313Z,4.20
2019-06-07T13:41:42.018Z,4.27
2019-06-07T13:44:07.522Z,4.13
2019-06-07T13:46:41.928Z,4.90
2019-06-07T13:49:17.230Z,4.90
2019-06-07T13:51:51.281Z,5.20
2019-06-07T13:54:25.139Z,3.70
2019-06-07T13:57:03.404Z,4.77
2019-06-07T13:59:36.148Z,4.57
2019-06-07T14:02:10.651Z,4.60
2019-06-07T14:04:46.921Z,3.50
2019-06-07T14:07:23.667Z,3.53
2019-06-07T14:09:58.689Z,3.80
2019-06-07T14:12:33.544Z,4.27
2019-06-07T14:15:07.184Z,3.80
2019-06-07T14:17:39.584Z,4.23
2019-06-07T14:20:13.246Z,4.10
2019-06-07T14:22:47.086Z,3.77
2019-06-07T14:25:23.014Z,4.20
2019-06-07T14:27:56.172Z,4.30
2019-06-07T14:30:32.178Z,4.77
2019-06-07T14:33:05.805Z,4.40
2019-06-07T14:35:39.581Z,3.90
2019-06-07T14:38:13.005Z,4.57
2019-06-07T14:40:45.593Z,5.10
2019-06-07T14:43:31.726Z,5.30
2019-06-07T14:46:06.895Z,4.53
2019-06-07T14:48:45.424Z,4.10
2019-06-07T14:51:18.216Z,4.77
2019-06-07T14:53:51.005Z,4.90
2019-06-07T14:56:24.852Z,3.73
2019-06-07T14:58:58.482Z,4.20
2019-06-07T15:01:35.459Z,4.53
2019-06-07T15:04:16.040Z,3.40
2019-06-07T15:06:51.841Z,3.80
2019-06-07T15:09:29.059Z,4.00
2019-06-07T15:12:04.164Z,3.83
2019-06-07T15:14:37.648Z,3.63
2019-06-07T15:17:12.945Z,3.87
2019-06-07T15:19:47.232Z,4.33
2019-06-07T15:22:26.272Z,3.70
2019-06-07T15:25:01.986Z,3.67
2019-06-07T15:27:37.644Z,3.90
2019-06-07T15:30:13.552Z,4.10
2019-06-07T15:32:47.544Z,3.60
2019-06-07T15:35:21.283Z,3.47
2019-06-07T15:37:55.179Z,3.70
2019-06-07T15:40:29.141Z,3.33
2019-06-07T15:43:02.474Z,3.70
2019-06-07T15:45:35.954Z,4.23
2019-06-07T15:48:13.138Z,4.17
2019-06-07T15:50:46.527Z,4.60
2019-06-07T15:53:19.843Z,4.33
2019-06-07T15:55:53.992Z,3.77
2019-06-07T15:58:26.726Z,3.83
2019-06-07T16:01:00.302Z,3.87
2019-06-07T16:03:33.827Z,4.30
2019-06-07T16:06:07.135Z,3.90
2019-06-07T16:08:40.465Z,4.57
2019-06-07T16:11:13.646Z,4.57
2019-06-07T16:13:46.706Z,3.80
2019-06-07T16:16:19.207Z,4.17
2019-06-07T16:18:52.778Z,4.70
2019-06-07T16:21:25.706Z,4.20
2019-06-07T16:23:58.998Z,4.73
2019-06-07T16:26:36.067Z,4.23
2019-06-07T16:29:08.985Z,3.90
2019-06-07T16:31:45.192Z,4.47
2019-06-07T16:34:19.126Z,4.47
2019-06-07T16:36:53.100Z,4.80
2019-06-07T16:39:25.811Z,4.30
2019-06-07T16:41:59.304Z,5.23
2019-06-07T16:44:34.882Z,4.83
2019-06-07T16:47:11.959Z,5.37
2019-06-07T16:49:46.075Z,4.80
2019-06-07T16:52:21.625Z,4.83
2019-06-07T16:54:54.716Z,5.57
2019-06-07T16:57:29.513Z,6.90
2019-06-07T17:00:04.415Z,4.90
2019-06-07T17:02:38.165Z,5.20
2019-06-07T17:05:12.510Z,4.87
2019-06-07T17:07:52.038Z,5.50
2019-06-07T17:10:25.665Z,4.57
2019-06-07T17:12:59.240Z,4.37
2019-06-07T17:15:33.819Z,4.30
2019-06-07T17:18:07.037Z,3.50
2019-06-07T17:20:41.015Z,4.20
2019-06-07T17:23:15.415Z,3.80
2019-06-07T17:25:49.678Z,4.20
2019-06-07T17:28:23.303Z,5.53
2019-06-07T17:31:01.201Z,4.07
2019-06-07T17:33:34.801Z,4.57
2019-06-07T17:36:10.583Z,3.80
2019-06-07T17:38:44.567Z,4.83
2019-06-07T17:41:18.080Z,4.13
2019-06-07T17:43:58.482Z,5.00
2019-06-07T17:46:30.855Z,4.60
2019-06-07T17:49:05.037Z,4.30
2019-06-07T17:51:38.273Z,5.00
2019-06-07T17:54:12.732Z,4.57
2019-06-07T17:56:50.520Z,4.80
2019-06-07T17:59:24.964Z,5.00
2019-06-07T18:02:15.545Z,4.70
2019-06-07T18:04:40.708Z,4.57
2019-06-07T18:07:15.950Z,5.23
2019-06-07T18:09:49.727Z,6.40
2019-06-07T18:12:24.590Z,5.47
2019-06-07T18:15:22.459Z,7.10
2019-06-07T18:17:57.161Z,6.20
2019-06-07T18:20:31.880Z,6.90
2019-06-07T18:23:04.957Z,6.53
2019-06-07T18:25:38.533Z,6.50
2019-06-07T18:28:11.960Z,4.87
2019-06-07T18:30:46.547Z,6.60
2019-06-07T18:33:19.267Z,2.70
2019-06-07T18:35:53.315Z,3.83
2019-06-07T18:38:26.538Z,3.93
2019-06-07T18:41:00.448Z,4.60
2019-06-07T18:43:34.271Z,5.63
2019-06-07T18:46:07.836Z,6.67
2019-06-07T18:48:42.500Z,6.90
2019-06-07T18:51:16.455Z,11.60
2019-06-07T18:53:49.805Z,11.90
2019-06-07T18:56:23.306Z,10.90
2019-06-07T18:58:56.812Z,9.83
2019-06-07T19:01:30.233Z,9.60
2019-06-07T19:04:06.578Z,7.70
2019-06-07T19:06:39.677Z,6.33
2019-06-07T19:09:12.840Z,6.60
2019-06-07T19:11:45.666Z,6.10
2019-06-07T19:14:19.232Z,4.17
2019-06-07T19:16:53.709Z,3.20
2019-06-07T19:19:26.529Z,2.63
2019-06-07T19:22:00.181Z,2.27
2019-06-07T19:24:34.055Z,1.90
2019-06-07T19:27:07.207Z,2.20
2019-06-07T19:29:40.317Z,2.00
2019-06-07T19:32:13.803Z,2.40
2019-06-07T19:34:46.911Z,2.17
2019-06-07T19:37:20.450Z,2.20
2019-06-07T19:39:55.599Z,2.60
2019-06-07T19:42:28.707Z,1.50
2019-06-07T19:45:28.268Z,1.37
2019-06-07T19:47:39.571Z,2.13
2019-06-07T19:50:13.086Z,1.70
2019-06-07T19:52:46.760Z,1.63
2019-06-07T19:55:20.363Z,1.50
2019-06-07T19:57:53.745Z,1.87
2019-06-07T20:00:26.469Z,1.80
2019-06-07T20:02:59.974Z,1.60
2019-06-07T20:05:34.104Z,1.30
2019-06-07T20:08:07.867Z,1.60
2019-06-07T20:10:41.377Z,1.67
2019-06-07T20:13:14.992Z,1.70
2019-06-07T20:15:48.692Z,1.37
2019-06-07T20:18:21.846Z,1.80
2019-06-07T20:20:56.415Z,1.67
2019-06-07T20:23:29.203Z,1.60
2019-06-07T20:26:02.506Z,1.57
2019-06-07T20:28:36.450Z,1.40
2019-06-07T20:31:10.366Z,1.70
2019-06-07T20:33:43.483Z,1.40
2019-06-07T20:36:17.078Z,2.00
2019-06-07T20:38:49.786Z,1.90
2019-06-07T20:41:22.655Z,1.63
2019-06-07T20:43:57.641Z,1.80
2019-06-07T20:46:31.517Z,1.47
2019-06-07T20:49:05.196Z,1.80
2019-06-07T20:51:39.638Z,1.40
2019-06-07T20:54:13.293Z,1.70
2019-06-07T20:56:47.335Z,1.60
2019-06-07T20:59:20.329Z,1.80
2019-06-07T21:01:54.090Z,1.85
2019-06-07T21:04:29.065Z,2.03
2019-06-07T21:07:01.758Z,1.50
2019-06-07T21:09:35.555Z,1.50
2019-06-07T21:12:09.944Z,1.45
2019-06-07T21:14:43.237Z,1.43
2019-06-07T21:17:17.158Z,1.40
2019-06-07T21:19:51.438Z,1.30
2019-06-07T21:22:25.247Z,1.10
2019-06-07T21:24:57.875Z,1.00
2019-06-07T21:27:31.328Z,1.30
2019-06-07T21:30:07.267Z,1.30
2019-06-07T21:32:40.471Z,1.43
2019-06-07T21:35:13.713Z,1.23
2019-06-07T21:37:48.380Z,1.60
2019-06-07T21:40:21.495Z,1.05
2019-06-07T21:42:54.044Z,1.33
2019-06-07T21:45:28.873Z,1.10
2019-06-07T21:48:03.704Z,1.10
2019-06-07T21:50:37.069Z,1.20
2019-06-07T21:53:10.720Z,1.30
2019-06-07T21:55:43.538Z,1.20
2019-06-07T21:58:17.801Z,1.23
2019-06-07T22:01:27.603Z,1.10
2019-06-07T22:04:05.425Z,1.20
2019-06-07T22:06:42.732Z,1.10
2019-06-07T22:09:15.370Z,1.20
2019-06-07T22:11:48.109Z,0.90
2019-06-07T22:14:26.649Z,1.30
2019-06-07T22:17:05.921Z,1.00
2019-06-07T22:19:43.491Z,0.90
2019-06-07T22:22:16.970Z,1.33
2019-06-07T22:24:50.370Z,0.90
2019-06-07T22:27:26.129Z,0.97
2019-06-07T22:29:59.234Z,1.00
2019-06-07T22:32:34.706Z,0.87
2019-06-07T22:35:10.908Z,0.95
2019-06-07T22:37:44.540Z,0.80
2019-06-07T22:40:18.670Z,1.07
2019-06-07T22:42:55.999Z,0.90
2019-06-07T22:45:33.202Z,0.83
2019-06-07T22:48:06.820Z,0.80
2019-06-07T22:50:44.017Z,1.00
2019-06-07T22:53:17.933Z,0.88
2019-06-07T22:56:16.092Z,0.90
2019-06-07T22:59:08.341Z,1.12
2019-06-07T23:01:47.394Z,1.10
2019-06-07T23:04:24.851Z,1.20
2019-06-07T23:06:58.098Z,0.98
2019-06-07T23:09:37.845Z,0.90
2019-06-07T23:12:15.491Z,0.90
2019-06-07T23:14:53.139Z,1.03
2019-06-07T23:17:25.900Z,0.70
2019-06-07T23:20:05.307Z,1.87
2019-06-07T23:22:36.774Z,0.80
2019-06-07T23:25:27.089Z,0.80
2019-06-07T23:28:05.590Z,1.00
2019-06-07T23:30:43.770Z,0.90
2019-06-07T23:33:17.225Z,0.83
2019-06-07T23:35:53.529Z,1.00
2019-06-07T23:38:27.694Z,1.10
2019-06-07T23:41:05.068Z,0.80
2019-06-07T23:43:46.257Z,0.90
2019-06-07T23:46:24.642Z,0.90
2019-06-07T23:49:03.440Z,0.90
2019-06-07T23:51:36.467Z,1.10
2019-06-07T23:54:18.172Z,1.00
2019-06-07T23:56:56.159Z,0.70
2019-06-07T23:59:37.035Z,1.00
